createdAt,value
2019-05-29T00:03:28.979Z,1.87
2019-05-29T00:08:32.421Z,1.40
2019-05-29T00:13:35.842Z,2.60
2019-05-29T00:18:40.083Z,1.33
2019-05-29T00:23:43.654Z,2.00
2019-05-29T00:28:47.103Z,1.93
2019-05-29T00:33:50.604Z,1.73
2019-05-29T00:38:54.025Z,2.20
2019-05-29T00:43:57.460Z,2.07
2019-05-29T00:49:00.890Z,2.50
2019-05-29T00:54:04.378Z,1.70
2019-05-29T00:59:08.926Z,1.50
2019-05-29T01:04:13.564Z,2.47
2019-05-29T01:09:18.296Z,2.10
2019-05-29T01:14:22.024Z,2.20
2019-05-29T01:19:25.650Z,2.53
2019-05-29T01:24:29.063Z,2.57
2019-05-29T01:29:32.478Z,2.10
2019-05-29T01:34:35.899Z,2.67
2019-05-29T01:39:39.602Z,2.53
2019-05-29T01:44:43.040Z,2.63
2019-05-29T01:49:46.454Z,2.07
2019-05-29T01:54:49.884Z,2.47
2019-05-29T01:59:53.347Z,2.20
2019-05-29T02:04:56.800Z,2.67
2019-05-29T02:10:00.261Z,2.10
2019-05-29T02:15:05.671Z,2.93
2019-05-29T02:20:09.722Z,1.97
2019-05-29T02:25:16.035Z,2.27
2019-05-29T02:30:21.098Z,2.57
2019-05-29T02:35:25.203Z,2.57
2019-05-29T02:40:30.115Z,3.33
2019-05-29T02:45:52.969Z,2.50
2019-05-29T02:50:38.756Z,3.10
2019-05-29T02:55:42.199Z,2.43
2019-05-29T03:00:51.908Z,2.63
2019-05-29T03:05:56.283Z,2.20
2019-05-29T03:10:59.699Z,2.77
2019-05-29T03:16:11.321Z,3.03
2019-05-29T03:21:08.610Z,3.40
2019-05-29T03:26:12.043Z,3.40
2019-05-29T03:31:15.602Z,2.90
2019-05-29T03:36:19.006Z,2.63
2019-05-29T03:41:22.412Z,3.53
2019-05-29T03:46:34.267Z,2.93
2019-05-29T03:51:32.573Z,2.83
2019-05-29T03:56:36.140Z,4.70
2019-05-29T04:01:39.590Z,3.43
2019-05-29T04:06:47.075Z,4.33
2019-05-29T04:11:48.347Z,3.50
2019-05-29T04:16:59.781Z,3.87
2019-05-29T04:22:00.976Z,3.93
2019-05-29T04:27:04.798Z,3.87
2019-05-29T04:32:08.280Z,4.13
2019-05-29T04:37:13.322Z,4.50
2019-05-29T04:42:16.756Z,4.40
2019-05-29T04:47:20.200Z,4.07
2019-05-29T04:52:23.630Z,4.90
2019-05-29T04:57:27.032Z,7.70
2019-05-29T05:02:31.093Z,9.23
2019-05-29T05:07:35.372Z,15.57
2019-05-29T05:12:40.156Z,23.63
2019-05-29T05:17:43.691Z,10.57
2019-05-29T05:22:47.102Z,7.90
2019-05-29T05:27:50.507Z,7.07
2019-05-29T05:32:53.986Z,6.27
2019-05-29T05:37:58.458Z,7.27
2019-05-29T05:43:01.965Z,6.50
2019-05-29T05:48:05.481Z,5.00
2019-05-29T05:53:08.888Z,5.30
2019-05-29T05:58:12.310Z,5.10
2019-05-29T06:03:15.737Z,4.43
2019-05-29T06:08:19.161Z,4.10
2019-05-29T06:13:22.580Z,3.67
2019-05-29T06:18:26.001Z,3.10
2019-05-29T06:23:29.450Z,3.00
2019-05-29T06:28:33.068Z,4.23
2019-05-29T06:33:37.372Z,3.60
2019-05-29T06:38:42.142Z,3.10
2019-05-29T06:43:46.629Z,4.13
2019-05-29T06:48:59.366Z,3.10
2019-05-29T06:53:55.259Z,2.67
2019-05-29T06:58:58.851Z,3.67
2019-05-29T07:04:11.733Z,3.07
2019-05-29T07:09:07.566Z,3.70
2019-05-29T07:14:11.083Z,3.43
2019-05-29T07:19:47.590Z,4.17
2019-05-29T07:24:19.746Z,5.10
2019-05-29T07:29:23.194Z,4.20
2019-05-29T07:34:26.587Z,4.17
2019-05-29T07:39:30.025Z,4.17
2019-05-29T07:44:33.445Z,3.70
2019-05-29T07:49:39.866Z,4.67
2019-05-29T07:54:43.353Z,3.97
2019-05-29T07:59:47.134Z,4.20
2019-05-29T08:04:50.563Z,3.90
2019-05-29T08:09:53.966Z,3.30
2019-05-29T08:14:57.385Z,2.30
2019-05-29T08:20:06.818Z,2.20
2019-05-29T08:25:07.018Z,2.00
2019-05-29T08:30:11.979Z,2.10
2019-05-29T08:35:15.665Z,1.90
2019-05-29T08:40:19.418Z,1.87
2019-05-29T08:45:23.100Z,1.87
2019-05-29T08:50:26.538Z,1.30
2019-05-29T08:55:29.971Z,1.23
2019-05-29T09:00:33.413Z,1.57
2019-05-29T09:05:36.822Z,2.33
2019-05-29T09:10:40.277Z,1.30
2019-05-29T09:15:43.711Z,1.60
2019-05-29T09:21:02.220Z,1.83
2019-05-29T09:25:52.638Z,2.40
2019-05-29T09:30:56.066Z,1.97
2019-05-29T09:35:59.659Z,1.53
2019-05-29T09:41:03.095Z,2.00
2019-05-29T09:46:06.507Z,1.60
2019-05-29T09:51:20.713Z,1.67
2019-05-29T09:56:15.081Z,1.90
2019-05-29T10:01:23.933Z,1.70
2019-05-29T10:06:23.705Z,1.97
2019-05-29T10:11:27.142Z,1.20
2019-05-29T10:16:30.558Z,1.50
2019-05-29T10:21:40.647Z,1.77
2019-05-29T10:26:39.225Z,1.90
2019-05-29T10:31:46.755Z,1.03
2019-05-29T10:36:50.396Z,1.87
2019-05-29T10:41:53.250Z,1.13
2019-05-29T10:46:56.803Z,1.30
2019-05-29T10:52:13.813Z,1.23
2019-05-29T10:57:05.403Z,1.10
2019-05-29T11:02:09.118Z,1.30
2019-05-29T11:07:12.605Z,1.53
2019-05-29T11:12:16.070Z,0.90
2019-05-29T11:17:19.594Z,0.60
2019-05-29T11:22:26.594Z,0.70
2019-05-29T11:27:28.353Z,1.00
2019-05-29T11:32:31.769Z,0.80
2019-05-29T11:37:35.203Z,0.90
2019-05-29T11:42:38.629Z,1.20
2019-05-29T11:47:42.066Z,1.03
2019-05-29T11:52:45.499Z,0.70
2019-05-29T11:57:48.911Z,0.80
2019-05-29T12:02:53.737Z,1.40
2019-05-29T12:07:57.587Z,0.90
2019-05-29T12:13:01.710Z,0.83
2019-05-29T12:18:22.723Z,0.97
2019-05-29T12:23:24.774Z,0.70
2019-05-29T12:28:16.930Z,1.03
2019-05-29T12:33:20.309Z,1.23
2019-05-29T12:38:23.744Z,1.53
2019-05-29T12:43:28.214Z,1.00
2019-05-29T12:48:32.028Z,1.17
2019-05-29T12:53:35.491Z,1.70
2019-05-29T12:58:38.911Z,1.37
2019-05-29T13:03:45.409Z,1.80
2019-05-29T13:08:47.484Z,1.60
2019-05-29T13:13:50.903Z,1.60
2019-05-29T13:18:54.875Z,1.60
2019-05-29T13:24:01.897Z,1.70
2019-05-29T13:29:04.239Z,2.03
2019-05-29T13:34:07.789Z,1.50
2019-05-29T13:39:11.291Z,1.83
2019-05-29T13:44:14.730Z,2.40
2019-05-29T13:49:18.174Z,1.83
2019-05-29T13:54:21.635Z,1.53
2019-05-29T13:59:25.085Z,1.60
2019-05-29T14:04:28.513Z,1.40
2019-05-29T14:09:32.046Z,1.10
2019-05-29T14:14:35.467Z,1.23
2019-05-29T14:19:38.885Z,2.20
2019-05-29T14:24:42.393Z,1.33
2019-05-29T14:29:45.828Z,1.43
2019-05-29T14:34:49.238Z,1.50
2019-05-29T14:39:52.670Z,1.93
2019-05-29T14:44:56.176Z,0.80
2019-05-29T14:49:59.610Z,1.20
2019-05-29T14:55:04.477Z,1.60
2019-05-29T15:00:20.949Z,0.63
2019-05-29T15:05:16.419Z,1.83
2019-05-29T15:10:26.744Z,0.80
2019-05-29T15:15:25.771Z,0.70
2019-05-29T15:20:29.232Z,0.90
2019-05-29T15:25:32.675Z,0.80
2019-05-29T15:30:36.128Z,0.40
2019-05-29T15:35:39.589Z,0.57
2019-05-29T15:40:43.000Z,0.70
2019-05-29T15:45:47.069Z,0.80
2019-05-29T15:50:50.500Z,0.50
2019-05-29T15:55:53.936Z,0.60
2019-05-29T16:00:57.376Z,0.57
2019-05-29T16:06:00.816Z,0.60
2019-05-29T16:11:04.221Z,0.67
2019-05-29T16:16:09.331Z,0.67
2019-05-29T16:21:12.954Z,0.63
2019-05-29T16:26:18.272Z,1.07
2019-05-29T16:31:22.914Z,1.00
2019-05-29T16:36:26.531Z,0.60
2019-05-29T16:41:29.968Z,0.73
2019-05-29T16:46:33.411Z,0.60
2019-05-29T16:51:36.871Z,0.60
2019-05-29T16:56:40.286Z,1.27
2019-05-29T17:01:43.717Z,0.60
2019-05-29T17:06:47.159Z,0.93
2019-05-29T17:11:50.597Z,0.90
2019-05-29T17:16:54.238Z,0.60
2019-05-29T17:21:57.701Z,0.80
2019-05-29T17:27:01.122Z,0.57
2019-05-29T17:32:04.607Z,0.80
2019-05-29T17:37:08.111Z,0.83
2019-05-29T17:42:11.521Z,0.50
2019-05-29T17:47:15.756Z,0.60
2019-05-29T17:52:19.747Z,0.63
2019-05-29T17:57:23.912Z,0.37
2019-05-29T18:02:27.470Z,0.63
2019-05-29T18:07:30.964Z,0.93
2019-05-29T18:12:34.383Z,1.80
2019-05-29T18:17:37.811Z,1.60
2019-05-29T18:22:41.244Z,0.90
2019-05-29T18:27:44.665Z,0.80
2019-05-29T18:32:48.115Z,0.80
2019-05-29T18:37:51.527Z,0.60
2019-05-29T18:42:54.947Z,0.77
2019-05-29T18:47:58.391Z,1.13
2019-05-29T18:53:01.888Z,1.27
2019-05-29T18:58:05.395Z,0.70
2019-05-29T19:03:08.790Z,0.83
2019-05-29T19:08:12.212Z,1.00
2019-05-29T19:13:16.927Z,0.77
2019-05-29T19:18:20.371Z,1.07
2019-05-29T19:23:24.645Z,0.80
2019-05-29T19:28:28.643Z,1.30
2019-05-29T19:33:32.125Z,0.77
2019-05-29T19:38:35.533Z,0.77
2019-05-29T19:43:38.987Z,2.50
2019-05-29T19:48:42.426Z,1.53
2019-05-29T19:53:45.870Z,1.40
2019-05-29T19:58:49.338Z,2.27
2019-05-29T20:03:52.751Z,1.30
2019-05-29T20:08:56.189Z,1.30
2019-05-29T20:13:59.625Z,1.23
2019-05-29T20:19:03.051Z,4.50
2019-05-29T20:24:06.503Z,4.27
2019-05-29T20:29:09.937Z,2.07
2019-05-29T20:34:13.361Z,3.47
2019-05-29T20:39:16.779Z,1.57
2019-05-29T20:44:20.228Z,1.40
2019-05-29T20:49:23.751Z,3.03
2019-05-29T20:54:27.176Z,2.57
2019-05-29T20:59:31.736Z,1.90
2019-05-29T21:04:36.352Z,1.23
2019-05-29T21:09:41.071Z,1.67
2019-05-29T21:14:44.770Z,1.40
2019-05-29T21:19:48.183Z,1.57
2019-05-29T21:25:01.071Z,1.73
2019-05-29T21:29:56.806Z,1.37
2019-05-29T21:35:00.238Z,1.50
2019-05-29T21:40:05.706Z,1.40
2019-05-29T21:45:10.864Z,2.83
2019-05-29T21:50:15.657Z,3.50
2019-05-29T21:55:19.209Z,1.90
2019-05-29T22:00:44.551Z,1.80
2019-05-29T22:05:48.838Z,1.70
2019-05-29T22:10:53.443Z,1.20
2019-05-29T22:15:57.035Z,1.60
2019-05-29T22:21:01.663Z,1.50
2019-05-29T22:26:05.194Z,1.97
2019-05-29T22:31:08.596Z,1.70
2019-05-29T22:36:12.021Z,2.13
2019-05-29T22:41:15.439Z,1.60
2019-05-29T22:46:18.870Z,2.07
2019-05-29T22:51:22.358Z,1.97
2019-05-29T22:56:25.813Z,1.43
2019-05-29T23:01:29.247Z,1.80
2019-05-29T23:06:32.693Z,1.93
2019-05-29T23:11:36.137Z,1.27
2019-05-29T23:16:39.571Z,1.73
2019-05-29T23:21:43.003Z,1.60
2019-05-29T23:26:46.435Z,1.77
2019-05-29T23:31:49.888Z,1.40
2019-05-29T23:36:53.382Z,1.30
2019-05-29T23:41:57.283Z,1.47
2019-05-29T23:47:01.792Z,1.60
2019-05-29T23:52:05.458Z,1.60
2019-05-29T23:57:08.889Z,1.43
